createdAt,value
2022-07-29T00:00:46.848Z,12.6
2022-07-29T00:03:15.088Z,12.4
2022-07-29T00:05:43.323Z,12.5
2022-07-29T00:13:08.114Z,13.1
2022-07-29T00:15:36.354Z,12.9
2022-07-29T00:18:04.623Z,12.9
2022-07-29T00:20:32.886Z,12.7
2022-07-29T00:23:01.142Z,12.6
2022-07-29T00:24:17.794Z,12.9
2022-07-29T00:27:57.707Z,13.1
2022-07-29T00:30:25.944Z,13
2022-07-29T00:32:54.202Z,12.8
2022-07-29T00:37:50.677Z,13.2
2022-07-29T00:42:47.205Z,13.3
2022-07-29T00:45:15.451Z,13.5
2022-07-29T00:47:43.703Z,13.2
2022-07-29T00:52:40.259Z,13.1
2022-07-29T00:55:08.553Z,13.3
2022-07-29T01:00:05.062Z,13.1
2022-07-29T01:02:33.304Z,13.1
2022-07-29T01:07:29.799Z,12.4
2022-07-29T01:09:58.102Z,12.5
2022-07-29T01:12:26.363Z,12.6
2022-07-29T01:13:42.976Z,12.5
2022-07-29T01:14:54.580Z,12.7
2022-07-29T01:17:22.870Z,12.3
2022-07-29T01:19:51.126Z,12.1
2022-07-29T01:22:19.375Z,12.7
2022-07-29T01:27:15.911Z,12.8
2022-07-29T01:29:44.157Z,12.8
2022-07-29T01:34:40.692Z,13
2022-07-29T01:37:08.901Z,12.9
2022-07-29T01:38:25.641Z,12.9
2022-07-29T01:42:05.485Z,13.1
2022-07-29T01:44:33.711Z,13.1
2022-07-29T01:49:30.204Z,13.1
2022-07-29T01:51:58.464Z,13.3
2022-07-29T01:56:54.996Z,12.9
2022-07-29T01:59:23.236Z,13.4
2022-07-29T02:01:51.520Z,13.3
2022-07-29T02:03:08.208Z,15.8
2022-07-29T02:06:48.030Z,13.1
2022-07-29T02:09:16.333Z,13.2
2022-07-29T02:11:44.578Z,13.1
2022-07-29T02:14:12.816Z,13.2
2022-07-29T02:16:41.082Z,13
2022-07-29T02:19:09.332Z,15.1
2022-07-29T02:21:37.619Z,13.3
2022-07-29T02:24:05.847Z,12.7
2022-07-29T02:27:50.780Z,13.4
2022-07-29T02:29:02.561Z,13.3
2022-07-29T02:33:59.048Z,13
2022-07-29T02:36:27.332Z,13.2
2022-07-29T02:41:23.817Z,13.6
2022-07-29T02:43:52.056Z,13.3
2022-07-29T02:46:20.365Z,13.4
2022-07-29T02:51:16.852Z,12.8
2022-07-29T02:56:13.369Z,12.4
2022-07-29T02:58:41.611Z,13.5
2022-07-29T03:01:09.931Z,12.4
2022-07-29T03:03:38.158Z,13.1
2022-07-29T03:06:06.425Z,13.1
2022-07-29T03:08:34.648Z,13.5
2022-07-29T03:11:02.918Z,13.1
2022-07-29T03:17:15.934Z,13
2022-07-29T03:18:27.684Z,13.1
2022-07-29T03:20:55.933Z,11.7
2022-07-29T03:23:24.242Z,11.5
2022-07-29T03:25:52.489Z,11.6
2022-07-29T03:28:20.702Z,12.9
2022-07-29T03:30:48.952Z,12.1
2022-07-29T03:33:17.231Z,12.6
2022-07-29T03:35:45.495Z,13.1
2022-07-29T03:38:13.779Z,12.8
2022-07-29T03:40:42.013Z,13.1
2022-07-29T03:41:58.530Z,13
2022-07-29T03:43:10.306Z,13
2022-07-29T03:48:06.786Z,12.4
2022-07-29T03:50:35.037Z,13.4
2022-07-29T03:53:03.290Z,13.3
2022-07-29T03:55:31.565Z,13.1
2022-07-29T03:57:59.860Z,12.1
2022-07-29T04:00:28.049Z,12.4
2022-07-29T04:05:24.577Z,13.8
2022-07-29T04:06:41.106Z,13.1
2022-07-29T04:10:21.076Z,13.2
2022-07-29T04:12:49.364Z,12.4
2022-07-29T04:15:17.646Z,13.4
2022-07-29T04:27:38.918Z,13.4
2022-07-29T04:30:07.181Z,13.6
2022-07-29T04:31:23.737Z,13.2
2022-07-29T04:32:35.435Z,12.6
2022-07-29T04:35:03.685Z,13.5
2022-07-29T04:40:00.232Z,13
2022-07-29T04:42:28.446Z,11.9
2022-07-29T04:44:56.739Z,12.9
2022-07-29T04:47:25.015Z,12.9
2022-07-29T04:49:53.220Z,13.1
2022-07-29T05:02:14.533Z,13.2
2022-07-29T05:04:42.815Z,13.7
2022-07-29T05:07:11.049Z,13.6
2022-07-29T05:09:39.277Z,14.4
2022-07-29T05:12:07.536Z,13.8
2022-07-29T05:14:35.792Z,12.7
2022-07-29T05:17:04.100Z,12.9
2022-07-29T05:19:32.310Z,13.7
2022-07-29T05:20:48.961Z,13.5
2022-07-29T05:22:00.558Z,11.9
2022-07-29T05:24:28.856Z,12.2
2022-07-29T05:26:57.101Z,12.9
2022-07-29T05:34:21.859Z,13.2
2022-07-29T05:36:50.153Z,13.7
2022-07-29T05:39:18.366Z,13.5
2022-07-29T05:41:46.659Z,13
2022-07-29T05:44:14.927Z,12.5
2022-07-29T05:46:43.191Z,13.4
2022-07-29T05:49:11.449Z,14
2022-07-29T05:54:07.934Z,14.2
2022-07-29T05:59:04.470Z,12.7
2022-07-29T06:01:32.744Z,13.9
2022-07-29T06:04:01.000Z,14.1
2022-07-29T06:06:29.200Z,13.7
2022-07-29T06:10:14.089Z,13.2
2022-07-29T06:11:25.758Z,13.5
2022-07-29T06:16:22.281Z,13.5
2022-07-29T06:18:50.520Z,13.3
2022-07-29T06:21:18.791Z,14.3
2022-07-29T06:23:47.100Z,13.1
2022-07-29T06:26:15.292Z,13.7
2022-07-29T06:28:43.503Z,14.1
2022-07-29T06:31:11.812Z,14.2
2022-07-29T06:33:40.024Z,13.1
2022-07-29T06:34:56.655Z,14.1
2022-07-29T06:38:36.592Z,14
2022-07-29T06:41:04.866Z,14
2022-07-29T06:43:33.117Z,13
2022-07-29T06:46:01.345Z,14
2022-07-29T06:48:29.616Z,14.4
2022-07-29T06:50:57.885Z,14
2022-07-29T06:53:26.155Z,13.3
2022-07-29T06:55:54.354Z,13.2
2022-07-29T06:58:22.602Z,13.2
2022-07-29T07:00:50.923Z,14.1
2022-07-29T07:03:19.130Z,13.7
2022-07-29T07:08:15.676Z,12.8
2022-07-29T07:10:43.910Z,14.1
2022-07-29T07:13:12.174Z,14.1
2022-07-29T07:15:40.461Z,13
2022-07-29T07:18:08.677Z,13.5
2022-07-29T07:20:36.916Z,14.7
2022-07-29T07:23:05.175Z,14.7
2022-07-29T07:25:33.423Z,13.2
2022-07-29T07:28:01.745Z,12.6
2022-07-29T07:30:29.949Z,13.5
2022-07-29T07:32:58.218Z,13.8
2022-07-29T07:35:26.486Z,13
2022-07-29T07:37:54.734Z,13.4
2022-07-29T07:40:23.018Z,13.9
2022-07-29T07:45:19.530Z,13.6
2022-07-29T07:47:47.808Z,14.2
2022-07-29T07:50:16.093Z,13.3
2022-07-29T07:55:12.536Z,14.1
2022-07-29T07:57:40.818Z,13.5
2022-07-29T08:00:09.112Z,14
2022-07-29T08:02:37.366Z,13.9
2022-07-29T08:05:05.619Z,13.9
2022-07-29T08:07:33.824Z,13.9
2022-07-29T08:10:02.127Z,14
2022-07-29T08:12:30.416Z,14.4
2022-07-29T08:13:47.040Z,13.3
2022-07-29T08:14:58.626Z,14.7
2022-07-29T08:17:26.885Z,14.1
2022-07-29T08:19:55.170Z,14
2022-07-29T08:22:23.386Z,14.3
2022-07-29T08:24:51.701Z,13.5
2022-07-29T08:27:19.933Z,13.7
2022-07-29T08:29:48.204Z,14.2
2022-07-29T08:32:16.449Z,14
2022-07-29T08:34:44.723Z,13.8
2022-07-29T08:37:12.949Z,14.3
2022-07-29T08:38:29.646Z,13.4
2022-07-29T08:39:41.205Z,14.4
2022-07-29T08:42:09.499Z,14
2022-07-29T08:44:37.732Z,14
2022-07-29T08:47:05.974Z,14.7
2022-07-29T08:52:02.549Z,14.4
2022-07-29T08:54:30.796Z,13.9
2022-07-29T08:56:59.033Z,14.3
2022-07-29T08:59:27.326Z,14.8
2022-07-29T09:01:55.572Z,14
2022-07-29T09:04:23.832Z,14.1
2022-07-29T09:06:52.043Z,13.9
2022-07-29T09:09:20.301Z,14.2
2022-07-29T09:16:45.169Z,14.2
2022-07-29T09:19:13.384Z,14.1
2022-07-29T09:21:41.651Z,14.4
2022-07-29T09:24:09.910Z,14.5
2022-07-29T09:26:38.129Z,14.9
2022-07-29T09:27:54.804Z,13.9
2022-07-29T09:31:34.654Z,13.9
2022-07-29T09:41:27.720Z,13.6
2022-07-29T09:46:24.213Z,13.8
2022-07-29T09:51:20.766Z,14.9
2022-07-29T09:52:37.407Z,14.2
2022-07-29T09:53:49.043Z,13.4
2022-07-29T09:58:45.529Z,14.4
2022-07-29T10:01:13.791Z,14.1
2022-07-29T10:03:42.030Z,14.1
2022-07-29T10:06:10.277Z,14.8
2022-07-29T10:08:38.530Z,14.9
2022-07-29T10:11:06.840Z,14.6
2022-07-29T10:13:35.054Z,14.7
2022-07-29T10:16:03.351Z,14.8
2022-07-29T10:17:19.962Z,13.5
2022-07-29T10:18:31.626Z,13.9
2022-07-29T10:23:28.079Z,14.2
2022-07-29T10:25:56.361Z,14.2
2022-07-29T10:28:24.634Z,14.3
2022-07-29T10:30:52.867Z,14.4
2022-07-29T10:33:21.114Z,14.5
2022-07-29T10:35:49.362Z,14.7
2022-07-29T10:38:17.627Z,15.7
2022-07-29T10:42:02.576Z,14.9
2022-07-29T10:43:14.202Z,15.1
2022-07-29T10:45:42.419Z,15.2
2022-07-29T10:50:38.952Z,14.4
2022-07-29T10:53:07.249Z,14.1
2022-07-29T10:58:03.711Z,13.5
2022-07-29T11:05:28.551Z,14.7
2022-07-29T11:07:56.818Z,15.6
2022-07-29T11:10:25.051Z,14.7
2022-07-29T11:12:53.281Z,15.5
2022-07-29T11:15:21.580Z,15.2
2022-07-29T11:22:46.298Z,16.1
2022-07-29T11:25:14.614Z,15.2
2022-07-29T11:27:42.849Z,15.8
2022-07-29T11:30:11.111Z,16.3
2022-07-29T11:31:27.779Z,16.6
2022-07-29T11:35:07.614Z,17
2022-07-29T11:37:35.865Z,16.4
2022-07-29T11:40:04.125Z,16
2022-07-29T11:42:32.426Z,16
2022-07-29T11:45:00.698Z,16.4
2022-07-29T11:47:28.930Z,16.4
2022-07-29T11:49:57.168Z,16.5
2022-07-29T11:52:25.456Z,16.9
2022-07-29T11:56:10.351Z,15.5
2022-07-29T11:57:21.933Z,16.1
2022-07-29T11:59:50.203Z,16.1
2022-07-29T12:02:18.464Z,15.1
2022-07-29T12:04:46.725Z,16.7
2022-07-29T12:07:15.010Z,15.2
2022-07-29T12:09:43.235Z,15.2
2022-07-29T12:12:11.527Z,15.4
2022-07-29T12:14:39.756Z,15.2
2022-07-29T12:17:08.017Z,14.8
2022-07-29T12:20:52.955Z,14.3
2022-07-29T12:22:04.563Z,14.1
2022-07-29T12:27:01.066Z,15.2
2022-07-29T12:29:29.317Z,15.4
2022-07-29T12:31:57.575Z,14
2022-07-29T12:34:25.846Z,17.5
2022-07-29T12:36:54.119Z,14.4
2022-07-29T12:39:22.365Z,14.7
2022-07-29T12:41:50.579Z,14.3
2022-07-29T12:44:18.844Z,14.7
2022-07-29T12:45:35.531Z,14.3
2022-07-29T12:46:47.162Z,13.6
2022-07-29T12:49:15.419Z,13.9
2022-07-29T12:51:43.618Z,14
2022-07-29T12:54:11.868Z,14.2
2022-07-29T12:56:40.179Z,14.9
2022-07-29T12:59:08.388Z,14
2022-07-29T13:01:36.699Z,14
2022-07-29T13:06:33.212Z,14.6
2022-07-29T13:09:01.458Z,13.4
2022-07-29T13:11:29.715Z,14.2
2022-07-29T13:13:57.953Z,14.5
2022-07-29T13:16:26.210Z,14.7
2022-07-29T13:18:54.519Z,15.3
2022-07-29T13:21:22.714Z,13.1
2022-07-29T13:23:50.985Z,14.1
2022-07-29T13:26:19.227Z,14
2022-07-29T13:28:47.489Z,13.5
2022-07-29T13:33:44.049Z,14
2022-07-29T13:35:00.714Z,14.1
2022-07-29T13:36:12.286Z,13.2
2022-07-29T13:41:08.821Z,14.4
2022-07-29T13:43:37.107Z,14.4
2022-07-29T13:51:01.869Z,14.3
2022-07-29T13:53:30.094Z,14.2
2022-07-29T13:58:26.639Z,14.1
2022-07-29T13:59:43.321Z,12.6
2022-07-29T14:00:54.919Z,13.3
2022-07-29T14:03:23.182Z,13.1
2022-07-29T14:05:51.373Z,14
2022-07-29T14:10:47.926Z,14.1
2022-07-29T14:13:16.154Z,13.9
2022-07-29T14:15:44.433Z,14
2022-07-29T14:18:12.668Z,13.9
2022-07-29T14:20:40.957Z,14.5
2022-07-29T14:23:09.185Z,14.4
2022-07-29T14:24:25.859Z,14
2022-07-29T14:25:37.457Z,14
2022-07-29T14:28:05.722Z,13.3
2022-07-29T14:33:02.267Z,13.5
2022-07-29T14:35:30.490Z,13.7
2022-07-29T14:37:58.762Z,13.6
2022-07-29T14:40:27.058Z,14
2022-07-29T14:42:55.278Z,13.9
2022-07-29T14:45:23.563Z,13.3
2022-07-29T14:47:51.804Z,13.5
2022-07-29T14:49:08.472Z,13.4
2022-07-29T14:50:20.076Z,12.9
2022-07-29T14:52:48.362Z,12.5
2022-07-29T14:55:16.606Z,13.5
2022-07-29T14:57:44.876Z,13.8
2022-07-29T15:02:41.340Z,14.2
2022-07-29T15:05:09.583Z,14.1
2022-07-29T15:07:37.853Z,13.5
2022-07-29T15:12:34.414Z,13.5
2022-07-29T15:15:02.682Z,13
2022-07-29T15:17:30.939Z,13
2022-07-29T15:19:59.161Z,14
2022-07-29T15:22:27.419Z,13.6
2022-07-29T15:24:55.676Z,12.6
2022-07-29T15:29:52.201Z,13.7
2022-07-29T15:32:20.488Z,12.8
2022-07-29T15:34:48.720Z,12.7
2022-07-29T15:38:33.647Z,13.7
2022-07-29T15:39:45.279Z,13
2022-07-29T15:44:41.799Z,12.7
2022-07-29T15:49:38.288Z,12.4
2022-07-29T15:57:03.030Z,12.9
2022-07-29T15:59:31.348Z,12.5
2022-07-29T16:01:59.596Z,13.4
2022-07-29T16:03:16.277Z,14.2
2022-07-29T16:04:27.838Z,12.4
2022-07-29T16:06:56.126Z,13
2022-07-29T16:09:24.367Z,13.1
2022-07-29T16:11:52.639Z,13.4
2022-07-29T16:14:20.905Z,12.8
2022-07-29T16:16:49.162Z,13.1
2022-07-29T16:19:17.395Z,12.8
2022-07-29T16:26:42.209Z,12.5
2022-07-29T16:27:58.808Z,13.3
2022-07-29T16:29:10.473Z,13.2
2022-07-29T16:31:38.687Z,12.8
2022-07-29T16:34:06.944Z,13.3
2022-07-29T16:36:35.224Z,12.3
2022-07-29T16:41:31.729Z,13.8
2022-07-29T16:44:00.030Z,13.4
2022-07-29T16:46:28.231Z,12.9
2022-07-29T16:48:56.485Z,13.2
2022-07-29T16:52:41.412Z,13.2
2022-07-29T16:53:53.069Z,13
2022-07-29T16:56:21.272Z,12.9
2022-07-29T17:01:17.857Z,12.1
2022-07-29T17:03:46.103Z,12.8
2022-07-29T17:08:42.572Z,12.8
2022-07-29T17:11:10.840Z,12.5
2022-07-29T17:18:35.631Z,11.7
2022-07-29T17:21:03.910Z,12.3
2022-07-29T17:23:32.168Z,11.9
2022-07-29T17:26:00.434Z,10.7
2022-07-29T17:28:28.686Z,11.8
2022-07-29T17:30:56.968Z,12
2022-07-29T17:33:25.158Z,10.9
2022-07-29T17:38:21.742Z,11
2022-07-29T17:40:49.936Z,11.2
2022-07-29T17:42:06.639Z,11.6
2022-07-29T17:43:18.404Z,11.2
2022-07-29T17:48:14.906Z,11.8
2022-07-29T17:50:43.149Z,13.6
2022-07-29T17:53:11.440Z,13.1
2022-07-29T17:55:39.730Z,13.2
2022-07-29T18:03:04.433Z,12.5
2022-07-29T18:05:32.700Z,13.1
2022-07-29T18:06:49.211Z,13
2022-07-29T18:12:57.536Z,12.9
2022-07-29T18:15:25.735Z,12.5
2022-07-29T18:17:54.021Z,11.8
2022-07-29T18:20:22.283Z,12.8
2022-07-29T18:25:18.785Z,11.9
2022-07-29T18:27:47.049Z,13.2
2022-07-29T18:30:15.314Z,12.1
2022-07-29T18:31:31.859Z,13.6
2022-07-29T18:32:43.556Z,12.2
2022-07-29T18:35:11.852Z,12.9
2022-07-29T18:37:40.082Z,13.1
2022-07-29T18:42:36.612Z,11.3
2022-07-29T18:45:04.908Z,11
2022-07-29T18:47:33.093Z,12.2
2022-07-29T18:50:01.391Z,12.3
2022-07-29T18:52:29.660Z,12.4
2022-07-29T18:54:57.896Z,11.8
2022-07-29T18:56:14.457Z,12.7
2022-07-29T18:57:26.148Z,12
2022-07-29T19:02:22.701Z,12.3
2022-07-29T19:04:50.907Z,13.9
2022-07-29T19:09:47.468Z,12.9
2022-07-29T19:12:15.725Z,13
2022-07-29T19:14:43.929Z,11.8
2022-07-29T19:17:12.256Z,13
2022-07-29T19:19:40.458Z,13.1
2022-07-29T19:22:08.746Z,12.5
2022-07-29T19:24:36.981Z,12.1
2022-07-29T19:27:05.224Z,13.1
2022-07-29T19:29:33.530Z,12.7
2022-07-29T19:32:01.804Z,13.2
2022-07-29T19:34:30.066Z,13.6
2022-07-29T19:36:58.312Z,13.3
2022-07-29T19:39:26.550Z,13.2
2022-07-29T19:41:54.828Z,13.7
2022-07-29T19:44:23.085Z,14
2022-07-29T19:45:39.612Z,13.3
2022-07-29T19:46:51.304Z,13.6
2022-07-29T19:49:19.612Z,14.4
2022-07-29T19:51:47.822Z,12
2022-07-29T19:56:44.392Z,14
2022-07-29T19:59:12.607Z,13.5
2022-07-29T20:01:40.862Z,12.6
2022-07-29T20:06:37.390Z,12.6
2022-07-29T20:09:05.635Z,13.2
2022-07-29T20:10:22.210Z,13.1
2022-07-29T20:11:33.935Z,13.1
2022-07-29T20:14:02.180Z,13
2022-07-29T20:16:30.460Z,13.2
2022-07-29T20:21:26.912Z,13.1
2022-07-29T20:23:55.201Z,13.3
2022-07-29T20:26:23.425Z,13.6
2022-07-29T20:28:51.698Z,12.8
2022-07-29T20:31:19.966Z,12.8
2022-07-29T20:33:48.243Z,13.7
2022-07-29T20:35:04.866Z,13.6
2022-07-29T20:36:16.482Z,12.7
2022-07-29T20:38:44.786Z,13.4
2022-07-29T20:43:41.296Z,13.6
2022-07-29T20:46:09.524Z,13.3
2022-07-29T20:48:37.814Z,13.1
2022-07-29T20:53:34.320Z,13.1
2022-07-29T20:56:02.573Z,13.3
2022-07-29T20:58:30.802Z,12.8
2022-07-29T20:59:47.426Z,13.6
2022-07-29T21:00:59.045Z,12.9
2022-07-29T21:03:27.335Z,12.1
2022-07-29T21:08:23.890Z,12.7
2022-07-29T21:13:20.333Z,13.4
2022-07-29T21:15:48.603Z,13.2
2022-07-29T21:20:45.123Z,13.2
2022-07-29T21:23:13.393Z,13.4
2022-07-29T21:30:38.188Z,13.8
2022-07-29T21:33:06.454Z,13.6
2022-07-29T21:35:34.726Z,14
2022-07-29T21:38:02.964Z,13.9
2022-07-29T21:40:31.243Z,13.5
2022-07-29T21:45:27.725Z,13.5
2022-07-29T21:49:12.591Z,13.5
2022-07-29T21:52:52.526Z,13.2
2022-07-29T21:55:20.738Z,13.4
2022-07-29T22:00:17.277Z,13.7
2022-07-29T22:02:45.563Z,13.1
2022-07-29T22:05:13.826Z,13.7
2022-07-29T22:07:42.093Z,14
2022-07-29T22:12:38.557Z,13.7
2022-07-29T22:13:55.229Z,13.3
2022-07-29T22:15:06.818Z,13.2
2022-07-29T22:17:35.063Z,12.6
2022-07-29T22:20:03.382Z,13.4
2022-07-29T22:22:31.631Z,12.8
2022-07-29T22:24:59.832Z,12.9
2022-07-29T22:27:28.146Z,13
2022-07-29T22:29:56.348Z,14
2022-07-29T22:32:24.653Z,13.7
2022-07-29T22:34:52.868Z,13.4
2022-07-29T22:37:21.142Z,12.3
2022-07-29T22:38:37.776Z,14
2022-07-29T22:39:49.427Z,13.5
2022-07-29T22:42:17.688Z,13.6
2022-07-29T22:44:45.917Z,13.6
2022-07-29T22:47:14.176Z,13.8
2022-07-29T22:52:10.726Z,13.3
2022-07-29T22:54:38.927Z,13
2022-07-29T22:59:35.485Z,11.8
2022-07-29T23:02:03.752Z,13.2
2022-07-29T23:03:20.398Z,15.6
2022-07-29T23:04:32.012Z,14.7
2022-07-29T23:07:00.236Z,13.7
2022-07-29T23:09:28.517Z,13.9
2022-07-29T23:11:56.747Z,13.1
2022-07-29T23:14:25.019Z,13.5
2022-07-29T23:24:18.062Z,14.1
2022-07-29T23:29:14.629Z,14.2
2022-07-29T23:34:11.107Z,14
2022-07-29T23:36:39.404Z,14
2022-07-29T23:39:07.646Z,13.7
2022-07-29T23:44:04.114Z,13.3
2022-07-29T23:46:32.375Z,13.6
2022-07-29T23:49:00.650Z,12.9
2022-07-29T23:51:28.931Z,13.8
2022-07-29T23:52:45.581Z,12.5
2022-07-29T23:53:57.221Z,13.9
2022-07-29T23:56:25.479Z,13.8
2022-07-29T23:58:53.705Z,13.4
